createdAt,value
2023-04-10T00:03:12.949Z,34.18
2023-04-10T00:08:35.026Z,34.32
2023-04-10T00:13:56.885Z,34.32
2023-04-10T00:19:18.731Z,34.54
2023-04-10T00:24:40.596Z,34.57
2023-04-10T00:30:02.982Z,34.52
2023-04-10T00:35:24.839Z,34.36
2023-04-10T00:40:46.698Z,34.31
2023-04-10T00:46:08.678Z,34.28
2023-04-10T00:51:31.607Z,34.45
2023-04-10T00:56:53.623Z,34.32
2023-04-10T01:02:15.993Z,34.41
2023-04-10T01:07:44.244Z,34.49
2023-04-10T01:13:08.734Z,34.63
2023-04-10T01:18:38.048Z,34.18
2023-04-10T01:24:24.496Z,34.46
2023-04-10T01:29:52.535Z,34.69
2023-04-10T01:35:16.876Z,34.31
2023-04-10T01:40:42.786Z,34.41
2023-04-10T01:46:05.706Z,34.45
2023-04-10T01:51:28.418Z,34.28
2023-04-10T01:56:50.468Z,34.47
2023-04-10T02:02:12.584Z,34.23
2023-04-10T02:07:42.681Z,34.62
2023-04-10T02:13:07.684Z,34.56
2023-04-10T02:18:32.374Z,34.71
2023-04-10T02:23:54.580Z,34.50
2023-04-10T02:29:17.180Z,34.68
2023-04-10T02:34:39.052Z,34.18
2023-04-10T02:40:00.994Z,34.42
2023-04-10T02:45:23.141Z,34.57
2023-04-10T02:50:46.907Z,34.71
2023-04-10T02:56:09.394Z,34.58
2023-04-10T03:01:31.440Z,34.70
2023-04-10T03:06:53.702Z,34.30
2023-04-10T03:12:15.771Z,34.79
2023-04-10T03:17:37.836Z,34.37
2023-04-10T03:23:00.978Z,34.50
2023-04-10T03:28:22.934Z,34.65
2023-04-10T03:33:44.969Z,34.41
2023-04-10T03:39:06.863Z,34.64
2023-04-10T03:44:28.670Z,34.40
2023-04-10T03:49:50.538Z,34.56
2023-04-10T03:55:12.500Z,34.58
2023-04-10T04:00:34.467Z,34.88
2023-04-10T04:05:56.548Z,34.56
2023-04-10T04:11:18.416Z,34.45
2023-04-10T04:16:40.301Z,34.45
2023-04-10T04:22:02.262Z,34.93
2023-04-10T04:27:24.197Z,34.79
2023-04-10T04:32:46.091Z,34.87
2023-04-10T04:38:07.991Z,34.77
2023-04-10T04:43:29.796Z,34.63
2023-04-10T04:48:51.646Z,34.79
2023-04-10T04:54:13.526Z,34.84
2023-04-10T04:59:35.708Z,34.98
2023-04-10T05:04:57.589Z,34.56
2023-04-10T05:10:21.226Z,34.44
2023-04-10T05:15:43.406Z,34.14
2023-04-10T05:21:05.455Z,33.96
2023-04-10T05:26:27.601Z,33.93
2023-04-10T05:31:50.637Z,33.83
2023-04-10T05:37:13.395Z,33.94
2023-04-10T05:42:35.228Z,33.85
2023-04-10T05:47:57.083Z,33.66
2023-04-10T05:53:21.446Z,34.00
2023-04-10T05:58:43.364Z,34.16
2023-04-10T06:04:05.341Z,33.91
2023-04-10T06:09:27.570Z,34.32
2023-04-10T06:14:49.456Z,34.34
2023-04-10T06:20:11.666Z,34.42
2023-04-10T06:25:33.511Z,34.15
2023-04-10T06:30:55.505Z,34.32
2023-04-10T06:36:18.129Z,34.18
2023-04-10T06:41:39.954Z,34.60
2023-04-10T06:47:01.805Z,34.39
2023-04-10T06:52:24.173Z,34.59
2023-04-10T06:57:46.095Z,34.24
2023-04-10T07:03:08.246Z,33.27
2023-04-10T07:08:30.231Z,31.70
2023-04-10T07:13:54.017Z,31.61
2023-04-10T07:19:16.230Z,31.40
2023-04-10T07:24:38.084Z,31.34
2023-04-10T07:29:59.926Z,30.71
2023-04-10T07:35:22.124Z,30.50
2023-04-10T07:40:43.940Z,30.09
2023-04-10T07:46:06.496Z,29.87
2023-04-10T07:51:29.879Z,29.64
2023-04-10T07:56:54.714Z,29.64
2023-04-10T08:02:16.762Z,29.86
2023-04-10T08:07:41.029Z,29.44
2023-04-10T08:13:02.865Z,29.51
2023-04-10T08:18:24.801Z,30.24
2023-04-10T08:23:47.296Z,30.22
2023-04-10T08:29:09.261Z,30.24
2023-04-10T08:34:31.159Z,30.76
2023-04-10T08:39:53.535Z,31.12
2023-04-10T08:45:15.975Z,31.17
2023-04-10T08:50:42.450Z,31.28
2023-04-10T08:56:05.806Z,31.34
2023-04-10T09:01:27.713Z,31.62
2023-04-10T09:06:49.641Z,32.17
2023-04-10T09:12:16.568Z,32.30
2023-04-10T09:17:39.248Z,32.66
2023-04-10T09:23:02.098Z,33.01
2023-04-10T09:28:23.997Z,33.19
2023-04-10T09:33:46.444Z,33.37
2023-04-10T09:39:10.705Z,33.22
2023-04-10T09:44:35.160Z,33.28
2023-04-10T09:50:01.032Z,33.39
2023-04-10T09:55:22.893Z,33.75
2023-04-10T10:00:49.953Z,33.42
2023-04-10T10:06:12.256Z,33.49
2023-04-10T10:11:35.794Z,33.91
2023-04-10T10:17:02.059Z,33.69
2023-04-10T10:22:26.493Z,33.64
2023-04-10T10:27:50.067Z,33.70
2023-04-10T10:33:14.272Z,33.67
2023-04-10T10:38:42.070Z,33.68
2023-04-10T10:44:13.750Z,33.59
2023-04-10T10:50:01.441Z,33.66
2023-04-10T10:55:23.284Z,33.65
2023-04-10T11:00:51.137Z,33.65
2023-04-10T11:06:17.436Z,33.94
2023-04-10T11:11:59.361Z,34.25
2023-04-10T11:17:49.222Z,34.50
2023-04-10T11:23:12.887Z,34.29
2023-04-10T11:28:39.677Z,34.56
2023-04-10T11:34:06.447Z,34.46
2023-04-10T11:39:28.649Z,34.66
2023-04-10T11:44:51.761Z,34.41
2023-04-10T11:50:14.883Z,34.52
2023-04-10T11:55:39.974Z,34.68
2023-04-10T12:01:04.419Z,34.75
2023-04-10T12:06:27.881Z,35.03
2023-04-10T12:12:03.766Z,34.74
2023-04-10T12:17:25.834Z,34.83
2023-04-10T12:22:48.341Z,34.90
2023-04-10T12:28:17.948Z,35.10
2023-04-10T12:33:39.821Z,35.11
2023-04-10T12:39:04.250Z,34.91
2023-04-10T12:44:26.192Z,34.73
2023-04-10T12:50:07.056Z,35.23
2023-04-10T12:55:31.978Z,34.89
2023-04-10T13:00:56.453Z,34.84
2023-04-10T13:06:18.428Z,35.27
2023-04-10T13:11:41.075Z,35.20
2023-04-10T13:17:02.931Z,35.12
2023-04-10T13:22:24.756Z,35.27
2023-04-10T13:27:46.595Z,35.33
2023-04-10T13:33:09.630Z,35.14
2023-04-10T13:38:31.678Z,35.48
2023-04-10T13:43:53.773Z,35.45
2023-04-10T13:49:18.201Z,35.62
2023-04-10T13:54:40.062Z,35.62
2023-04-10T14:00:02.194Z,35.77
2023-04-10T14:05:24.093Z,35.67
2023-04-10T14:10:50.912Z,35.69
2023-04-10T14:16:13.118Z,35.47
2023-04-10T14:21:35.281Z,35.64
2023-04-10T14:27:01.016Z,35.74
2023-04-10T14:32:23.153Z,35.82
2023-04-10T14:37:45.125Z,35.97
2023-04-10T14:43:07.569Z,35.56
2023-04-10T14:48:29.926Z,35.01
2023-04-10T14:53:52.525Z,35.00
2023-04-10T14:59:14.573Z,34.50
2023-04-10T15:04:36.614Z,34.90
2023-04-10T15:09:58.932Z,34.45
2023-04-10T15:15:20.836Z,34.40
2023-04-10T15:20:43.396Z,34.50
2023-04-10T15:26:05.537Z,35.13
2023-04-10T15:31:28.157Z,34.85
2023-04-10T15:36:50.093Z,35.02
2023-04-10T15:42:12.065Z,35.35
2023-04-10T15:47:33.958Z,35.61
2023-04-10T15:52:55.955Z,35.23
2023-04-10T15:58:17.808Z,35.59
2023-04-10T16:03:39.900Z,35.56
2023-04-10T16:09:02.171Z,35.65
2023-04-10T16:14:24.922Z,36.33
2023-04-10T16:19:46.960Z,36.24
2023-04-10T16:25:09.619Z,36.62
2023-04-10T16:30:31.529Z,36.03
2023-04-10T16:35:54.284Z,36.17
2023-04-10T16:41:21.094Z,35.93
2023-04-10T16:46:43.062Z,35.58
2023-04-10T16:52:04.962Z,35.72
2023-04-10T16:57:26.902Z,36.03
2023-04-10T17:02:49.504Z,35.63
2023-04-10T17:08:11.326Z,35.78
2023-04-10T17:13:34.264Z,36.05
2023-04-10T17:18:56.918Z,35.92
2023-04-10T17:24:19.043Z,36.22
2023-04-10T17:29:41.487Z,35.85
2023-04-10T17:35:03.437Z,36.05
2023-04-10T17:40:25.347Z,36.59
2023-04-10T17:45:47.304Z,36.39
2023-04-10T17:51:09.454Z,36.20
2023-04-10T17:56:32.023Z,36.21
2023-04-10T18:01:54.058Z,36.42
2023-04-10T18:07:16.207Z,36.42
2023-04-10T18:12:38.114Z,36.66
2023-04-10T18:17:59.965Z,36.24
2023-04-10T18:23:24.390Z,36.68
2023-04-10T18:28:46.583Z,36.38
2023-04-10T18:34:08.933Z,36.83
2023-04-10T18:39:30.989Z,36.83
2023-04-10T18:44:52.837Z,36.71
2023-04-10T18:50:14.767Z,35.93
2023-04-10T18:55:36.669Z,35.65
2023-04-10T19:00:58.632Z,35.70
2023-04-10T19:06:24.484Z,35.64
2023-04-10T19:11:46.422Z,35.79
2023-04-10T19:17:08.777Z,35.59
2023-04-10T19:22:33.110Z,35.67
2023-04-10T19:27:55.131Z,35.98
2023-04-10T19:33:17.491Z,35.74
2023-04-10T19:38:41.241Z,36.04
2023-04-10T19:44:03.116Z,36.65
2023-04-10T19:49:25.441Z,36.60
2023-04-10T19:54:48.131Z,37.04
2023-04-10T20:00:10.624Z,37.42
2023-04-10T20:05:32.546Z,37.58
2023-04-10T20:10:56.078Z,38.25
2023-04-10T20:16:19.156Z,38.77
2023-04-10T20:21:41.214Z,38.95
2023-04-10T20:27:03.390Z,38.93
2023-04-10T20:32:25.385Z,39.34
2023-04-10T20:37:47.693Z,39.51
2023-04-10T20:43:12.444Z,39.79
2023-04-10T20:48:34.551Z,39.73
2023-04-10T20:53:56.463Z,40.05
2023-04-10T20:59:18.705Z,39.47
2023-04-10T21:04:40.561Z,39.18
2023-04-10T21:10:02.513Z,39.43
2023-04-10T21:15:24.454Z,39.26
2023-04-10T21:20:46.339Z,39.51
2023-04-10T21:26:08.312Z,39.53
2023-04-10T21:31:30.163Z,39.39
2023-04-10T21:36:51.976Z,39.03
2023-04-10T21:42:13.834Z,38.93
2023-04-10T21:47:35.704Z,39.06
2023-04-10T21:52:57.660Z,38.69
2023-04-10T21:58:19.601Z,38.91
2023-04-10T22:03:41.639Z,38.63
2023-04-10T22:09:03.662Z,38.87
2023-04-10T22:14:26.015Z,38.62
2023-04-10T22:19:47.856Z,38.60
2023-04-10T22:25:09.815Z,38.55
2023-04-10T22:30:31.652Z,38.71
2023-04-10T22:35:53.952Z,38.24
2023-04-10T22:41:15.916Z,38.24
2023-04-10T22:46:38.015Z,38.21
2023-04-10T22:52:00.128Z,38.45
2023-04-10T22:57:21.990Z,38.46
2023-04-10T23:02:44.070Z,38.09
2023-04-10T23:08:06.000Z,38.50
2023-04-10T23:13:27.828Z,38.14
2023-04-10T23:18:50.921Z,38.01
2023-04-10T23:24:12.732Z,38.46
2023-04-10T23:29:35.136Z,38.40
2023-04-10T23:34:56.974Z,38.11
2023-04-10T23:40:19.971Z,38.34
2023-04-10T23:45:41.809Z,38.28
2023-04-10T23:51:05.452Z,38.08
2023-04-10T23:56:29.470Z,38.06
